Time;durP1;ratioP1;P1;durP2;ratioP2;P2;SDS_P1;SDS_P2;PMS_P1;PMS_P2;Temp;Humidity;BMP_temperature;BMP_pressure;BME280_temperature;BME280_humidity;BME280_pressure;Samples;Min_cycle;Max_cycle;Signal;HPM_P1;HPM_P2
2023/07/26 00:00:08;;;;;;;5.03;3.60;;;14.80;1.00;;;;;;5047651;28;20242;-61
2023/07/26 00:02:37;;;;;;;3.90;3.33;;;14.80;1.00;;;;;;5047604;28;20198;-62
2023/07/26 00:05:06;;;;;;;4.33;2.97;;;14.80;1.00;;;;;;5050652;28;20193;-61
2023/07/26 00:07:34;;;;;;;4.03;3.30;;;14.80;1.00;;;;;;5047844;28;20297;-61
2023/07/26 00:10:02;;;;;;;3.33;3.03;;;14.80;1.00;;;;;;5054438;28;20190;-62
2023/07/26 00:12:30;;;;;;;4.97;3.20;;;14.80;1.00;;;;;;5047449;28;20317;-61
2023/07/26 00:14:59;;;;;;;3.57;3.27;;;14.80;1.00;;;;;;5048958;28;20589;-61
2023/07/26 00:17:29;;;;;;;3.83;3.30;;;14.80;1.00;;;;;;5047139;28;20210;-61
2023/07/26 00:19:57;;;;;;;3.40;3.30;;;14.80;1.00;;;;;;5041115;28;20765;-62
2023/07/26 00:22:25;;;;;;;4.20;3.67;;;14.80;1.00;;;;;;5044647;28;20203;-62
2023/07/26 00:24:54;;;;;;;3.90;3.50;;;14.80;1.00;;;;;;5049983;28;20182;-61
2023/07/26 00:27:22;;;;;;;4.93;3.20;;;14.70;1.00;;;;;;5046029;28;20590;-61
2023/07/26 00:29:51;;;;;;;4.43;3.30;;;14.70;1.00;;;;;;5045636;28;20200;-61
2023/07/26 00:32:19;;;;;;;4.43;3.30;;;14.70;1.00;;;;;;5048385;28;20197;-61
2023/07/26 00:34:49;;;;;;;4.73;4.03;;;14.70;1.00;;;;;;5051027;28;20629;-61
2023/07/26 00:37:17;;;;;;;4.63;3.60;;;14.60;1.00;;;;;;5049606;28;20221;-61
2023/07/26 00:39:46;;;;;;;4.30;3.80;;;14.60;1.00;;;;;;5054667;28;20193;-61
2023/07/26 00:42:17;;;;;;;4.73;3.70;;;14.60;1.00;;;;;;5052687;28;20650;-61
2023/07/26 00:44:46;;;;;;;4.47;3.80;;;14.60;1.00;;;;;;5054810;28;20245;-61
2023/07/26 00:47:14;;;;;;;6.67;3.53;;;14.60;1.00;;;;;;5045864;28;20204;-61
2023/07/26 00:49:43;;;;;;;4.57;3.50;;;14.60;4.20;;;;;;5051212;28;20231;-61
2023/07/26 00:52:14;;;;;;;4.70;3.90;;;14.50;13.20;;;;;;5052316;28;20196;-61
2023/07/26 00:54:43;;;;;;;4.63;3.60;;;14.50;9.50;;;;;;5050085;28;20209;-61
2023/07/26 00:57:12;;;;;;;4.33;3.93;;;14.50;10.30;;;;;;5046162;28;20213;-62
2023/07/26 00:59:40;;;;;;;4.27;3.90;;;14.50;9.90;;;;;;5049396;28;20208;-61
2023/07/26 01:02:08;;;;;;;4.33;3.70;;;14.50;11.90;;;;;;5041376;28;20576;-61
2023/07/26 01:04:37;;;;;;;8.13;4.10;;;14.50;17.40;;;;;;5055391;28;20196;-61
2023/07/26 01:07:12;;;;;;;4.90;4.00;;;14.50;20.40;;;;;;5051781;28;20219;-61
2023/07/26 01:09:47;;;;;;;10.63;4.33;;;14.40;23.70;;;;;;5047798;28;20698;-61
2023/07/26 01:12:20;;;;;;;5.73;3.60;;;14.40;30.30;;;;;;5044612;28;21276;-61
2023/07/26 01:14:53;;;;;;;5.93;4.17;;;14.50;39.40;;;;;;5040864;28;20202;-61
2023/07/26 01:17:21;;;;;;;7.33;4.43;;;14.40;44.40;;;;;;5045634;28;20312;-61
2023/07/26 01:19:50;;;;;;;4.77;4.03;;;14.40;44.90;;;;;;5049364;28;20221;-61
2023/07/26 01:22:20;;;;;;;4.67;4.27;;;14.40;48.10;;;;;;5053791;28;20185;-61
2023/07/26 01:24:48;;;;;;;4.83;4.23;;;14.40;53.80;;;;;;5050167;28;20190;-61
2023/07/26 01:27:17;;;;;;;5.27;4.40;;;14.40;62.10;;;;;;5048883;28;20189;-61
2023/07/26 01:29:45;;;;;;;6.37;4.70;;;14.40;60.00;;;;;;5049258;28;20208;-61
2023/07/26 01:32:17;;;;;;;7.67;4.73;;;14.40;65.50;;;;;;5057580;28;20251;-60
2023/07/26 01:34:46;;;;;;;8.73;4.80;;;14.50;71.80;;;;;;5042133;28;20208;-61
2023/07/26 01:37:15;;;;;;;6.20;4.83;;;14.50;75.90;;;;;;5053992;28;20213;-61
2023/07/26 01:39:45;;;;;;;9.63;4.63;;;14.50;70.10;;;;;;5051173;28;20205;-60
2023/07/26 01:42:14;;;;;;;5.27;4.87;;;14.50;76.60;;;;;;5044959;28;20190;-61
2023/07/26 01:44:42;;;;;;;5.17;4.83;;;14.50;74.00;;;;;;5044201;28;20193;-61
2023/07/26 01:47:10;;;;;;;4.90;4.53;;;14.50;72.60;;;;;;5047717;28;20668;-61
2023/07/26 01:49:39;;;;;;;7.87;5.20;;;14.50;83.20;;;;;;5053607;28;20225;-61
2023/07/26 01:52:07;;;;;;;7.03;5.37;;;14.50;82.10;;;;;;5042250;28;20195;-61
2023/07/26 01:54:36;;;;;;;10.37;5.50;;;14.50;90.20;;;;;;5049236;28;20209;-61
2023/07/26 01:57:07;;;;;;;5.30;4.73;;;14.50;91.50;;;;;;5051612;28;20217;-61
2023/07/26 01:59:35;;;;;;;6.23;4.90;;;14.50;93.40;;;;;;5046488;28;20198;-61
2023/07/26 02:02:04;;;;;;;7.63;5.23;;;14.50;94.00;;;;;;5048200;28;20252;-61
2023/07/26 02:04:32;;;;;;;6.40;5.40;;;14.50;93.60;;;;;;5050075;28;20676;-61
2023/07/26 02:07:01;;;;;;;6.67;5.20;;;14.50;93.80;;;;;;5045792;28;20206;-62
2023/07/26 02:09:29;;;;;;;9.43;5.43;;;14.50;97.90;;;;;;5048509;28;20292;-61
2023/07/26 02:11:57;;;;;;;7.03;5.00;;;14.50;96.30;;;;;;5043046;28;20201;-61
2023/07/26 02:14:27;;;;;;;10.20;5.30;;;14.50;97.90;;;;;;5048172;28;20205;-61
2023/07/26 02:16:56;;;;;;;8.53;4.60;;;14.50;98.40;;;;;;5048058;28;20300;-61
2023/07/26 02:19:24;;;;;;;7.40;5.07;;;14.50;99.90;;;;;;5053406;28;20307;-61
2023/07/26 02:21:52;;;;;;;7.13;5.13;;;14.50;99.90;;;;;;5053298;28;20207;-61
2023/07/26 02:24:21;;;;;;;8.50;5.17;;;14.40;99.90;;;;;;5053966;28;20198;-61
2023/07/26 02:26:49;;;;;;;7.53;4.90;;;14.40;99.90;;;;;;5050510;28;20561;-62
2023/07/26 02:29:18;;;;;;;5.83;5.17;;;14.40;99.90;;;;;;5046855;28;20195;-62
2023/07/26 02:31:48;;;;;;;9.97;5.37;;;14.30;99.90;;;;;;5049967;28;20653;-61
2023/07/26 02:34:16;;;;;;;10.37;5.83;;;14.30;99.90;;;;;;5040269;28;20231;-61
2023/07/26 02:36:45;;;;;;;6.07;5.13;;;14.30;99.90;;;;;;5044298;28;20234;-61
2023/07/26 02:39:13;;;;;;;7.53;5.50;;;14.20;99.90;;;;;;5048143;28;20218;-61
2023/07/26 02:41:41;;;;;;;13.70;5.93;;;14.30;99.90;;;;;;5050565;28;20189;-61
2023/07/26 02:44:10;;;;;;;8.50;5.03;;;14.20;99.90;;;;;;5051333;28;20197;-61
2023/07/26 02:46:38;;;;;;;8.70;5.40;;;14.20;99.90;;;;;;5044025;28;20182;-62
2023/07/26 02:49:07;;;;;;;7.40;5.00;;;14.20;99.90;;;;;;5043550;28;20222;-61
2023/07/26 02:51:36;;;;;;;6.53;5.13;;;14.20;99.90;;;;;;5056243;28;20284;-61
2023/07/26 02:54:04;;;;;;;9.53;5.40;;;14.10;99.90;;;;;;5054535;28;20199;-61
2023/07/26 02:56:33;;;;;;;10.00;5.67;;;14.10;99.90;;;;;;5041889;28;20212;-61
2023/07/26 02:59:01;;;;;;;7.77;5.57;;;14.10;99.90;;;;;;5047109;28;21012;-61
2023/07/26 03:01:29;;;;;;;6.20;5.53;;;14.00;99.90;;;;;;5045169;28;20808;-61
2023/07/26 03:03:59;;;;;;;7.20;5.40;;;14.00;99.90;;;;;;5045046;28;20197;-61
2023/07/26 03:06:29;;;;;;;7.97;5.60;;;14.00;99.90;;;;;;5043966;28;20197;-61
2023/07/26 03:08:57;;;;;;;14.43;5.70;;;14.00;99.90;;;;;;5043854;28;20208;-61
2023/07/26 03:11:26;;;;;;;16.47;6.63;;;14.00;99.90;;;;;;5048780;28;20298;-61
2023/07/26 03:13:55;;;;;;;11.70;5.90;;;14.00;99.90;;;;;;5049930;28;20197;-61
2023/07/26 03:16:24;;;;;;;7.33;5.30;;;14.00;99.90;;;;;;5046194;28;20717;-61
2023/07/26 03:18:52;;;;;;;9.40;5.70;;;13.90;99.90;;;;;;5055596;28;20237;-61
2023/07/26 03:21:21;;;;;;;11.77;6.43;;;13.90;99.90;;;;;;5040681;28;20196;-61
2023/07/26 03:23:51;;;;;;;13.67;6.17;;;13.90;99.90;;;;;;5053133;28;20184;-61
2023/07/26 03:26:19;;;;;;;11.40;5.93;;;13.80;99.90;;;;;;5061026;28;20202;-61
2023/07/26 03:28:48;;;;;;;12.27;6.60;;;13.80;99.90;;;;;;5055945;28;20223;-61
2023/07/26 03:31:16;;;;;;;9.53;6.00;;;13.70;99.90;;;;;;5048349;28;20270;-61
2023/07/26 03:33:44;;;;;;;8.77;6.30;;;13.70;99.90;;;;;;5045775;28;20197;-61
2023/07/26 03:36:13;;;;;;;10.90;6.77;;;13.70;99.90;;;;;;5046573;28;20287;-61
2023/07/26 03:38:41;;;;;;;14.27;6.23;;;13.70;99.90;;;;;;5054326;28;20209;-61
2023/07/26 03:41:11;;;;;;;11.23;6.67;;;13.60;99.90;;;;;;5052374;28;20192;-61
2023/07/26 03:43:39;;;;;;;12.30;7.10;;;13.60;99.90;;;;;;5038291;28;20197;-61
2023/07/26 03:46:07;;;;;;;11.53;6.93;;;13.60;99.90;;;;;;5048009;28;20223;-61
2023/07/26 03:48:36;;;;;;;9.97;6.67;;;13.50;99.90;;;;;;5050098;28;20725;-61
2023/07/26 03:51:04;;;;;;;14.50;6.97;;;13.50;99.90;;;;;;5050304;28;20639;-61
2023/07/26 03:53:32;;;;;;;18.73;7.53;;;13.50;99.90;;;;;;5046291;28;20200;-61
2023/07/26 03:56:01;;;;;;;14.63;7.77;;;13.40;99.90;;;;;;5042907;28;20221;-61
2023/07/26 03:58:32;;;;;;;15.83;7.73;;;13.40;99.90;;;;;;5051871;28;20259;-62
2023/07/26 04:01:01;;;;;;;11.30;7.63;;;13.40;99.90;;;;;;5042678;28;20202;-62
2023/07/26 04:03:33;;;;;;;13.07;7.17;;;13.40;99.90;;;;;;5039276;28;20252;-60
2023/07/26 04:06:02;;;;;;;10.97;7.70;;;13.30;99.90;;;;;;5049222;28;20185;-60
2023/07/26 04:08:31;;;;;;;15.67;7.90;;;13.30;99.90;;;;;;5047778;28;20216;-60
2023/07/26 04:11:03;;;;;;;14.97;8.27;;;13.30;99.90;;;;;;5041570;28;20331;-60
2023/07/26 04:13:34;;;;;;;11.43;7.03;;;13.30;99.90;;;;;;5044814;28;20639;-60
2023/07/26 04:16:02;;;;;;;13.43;8.07;;;13.30;99.90;;;;;;5045592;28;20251;-61
2023/07/26 04:18:30;;;;;;;15.10;8.47;;;13.20;99.90;;;;;;5041978;28;20201;-61
2023/07/26 04:20:59;;;;;;;16.30;7.80;;;13.20;99.90;;;;;;5051241;28;20200;-61
2023/07/26 04:23:28;;;;;;;13.87;7.43;;;13.20;99.90;;;;;;5054231;28;20197;-61
2023/07/26 04:25:56;;;;;;;13.50;7.33;;;13.20;99.90;;;;;;5046589;28;20204;-61
2023/07/26 04:28:24;;;;;;;13.00;7.97;;;13.20;99.90;;;;;;5056267;28;20193;-60
2023/07/26 04:30:54;;;;;;;18.43;9.17;;;13.20;99.90;;;;;;5048216;28;20185;-60
2023/07/26 04:33:23;;;;;;;16.40;9.10;;;13.20;99.90;;;;;;5048784;28;20284;-61
2023/07/26 04:35:52;;;;;;;17.73;8.53;;;13.20;99.90;;;;;;5048636;28;20608;-61
2023/07/26 04:38:20;;;;;;;18.10;8.93;;;13.20;99.90;;;;;;5045749;28;20577;-61
2023/07/26 04:40:48;;;;;;;15.03;8.47;;;13.20;99.90;;;;;;5053621;28;20221;-60
2023/07/26 04:43:16;;;;;;;15.30;8.80;;;13.20;99.90;;;;;;5049514;28;20660;-61
2023/07/26 04:45:46;;;;;;;13.50;8.20;;;13.30;99.90;;;;;;5046933;28;20292;-61
2023/07/26 04:48:16;;;;;;;15.37;8.23;;;13.30;99.90;;;;;;5052349;28;20996;-61
2023/07/26 04:50:46;;;;;;;14.87;8.57;;;13.30;99.90;;;;;;5051597;28;20185;-61
2023/07/26 04:53:17;;;;;;;17.70;8.97;;;13.30;99.90;;;;;;5037789;28;20197;-61
2023/07/26 04:55:47;;;;;;;16.97;9.00;;;13.30;99.90;;;;;;5051539;28;20221;-60
2023/07/26 04:58:15;;;;;;;17.27;7.77;;;13.40;99.90;;;;;;5056638;28;20196;-61
2023/07/26 05:00:44;;;;;;;13.17;8.33;;;13.50;99.90;;;;;;5048278;28;20200;-61
2023/07/26 05:03:12;;;;;;;17.60;8.33;;;13.50;99.90;;;;;;5050423;28;20234;-61
2023/07/26 05:05:42;;;;;;;20.90;8.80;;;13.60;99.90;;;;;;5039018;28;20193;-60
2023/07/26 05:08:10;;;;;;;14.30;8.10;;;13.80;99.90;;;;;;5049776;28;20289;-60
2023/07/26 05:10:39;;;;;;;13.73;7.67;;;13.90;99.90;;;;;;5050116;28;20203;-60
2023/07/26 05:13:07;;;;;;;15.80;8.27;;;14.00;99.90;;;;;;5054127;28;20204;-60
2023/07/26 05:15:36;;;;;;;13.30;7.67;;;14.20;99.90;;;;;;5042868;28;20199;-60
2023/07/26 05:18:05;;;;;;;19.43;9.03;;;14.30;99.90;;;;;;5048383;28;20197;-61
2023/07/26 05:20:33;;;;;;;12.70;6.97;;;14.50;99.90;;;;;;5046459;28;20208;-61
2023/07/26 05:23:03;;;;;;;11.93;6.77;;;14.60;99.90;;;;;;5049369;28;20251;-61
2023/07/26 05:25:31;;;;;;;11.90;7.00;;;14.80;99.90;;;;;;5047525;28;20724;-60
2023/07/26 05:28:00;;;;;;;17.73;7.13;;;15.00;99.90;;;;;;5045675;28;20268;-60
2023/07/26 05:30:28;;;;;;;13.30;6.50;;;15.10;99.90;;;;;;5044328;28;20193;-60
2023/07/26 05:32:56;;;;;;;9.70;6.73;;;15.20;99.90;;;;;;5052149;28;20202;-60
2023/07/26 05:35:27;;;;;;;12.30;6.33;;;15.30;99.90;;;;;;5055328;28;20552;-60
2023/07/26 05:37:55;;;;;;;12.73;6.30;;;15.40;99.90;;;;;;5044131;28;20735;-61
2023/07/26 05:40:25;;;;;;;11.13;6.03;;;15.50;99.90;;;;;;5053581;28;20227;-60
2023/07/26 05:42:53;;;;;;;11.17;6.40;;;15.60;99.90;;;;;;5050347;28;20193;-61
2023/07/26 05:45:23;;;;;;;10.03;6.20;;;15.70;99.90;;;;;;5045615;28;20185;-61
2023/07/26 05:47:51;;;;;;;13.70;5.93;;;15.80;99.90;;;;;;5047280;28;20193;-61
2023/07/26 05:50:19;;;;;;;10.93;5.57;;;16.00;99.90;;;;;;5041280;28;20582;-61
2023/07/26 05:52:52;;;;;;;6.40;5.43;;;16.10;99.90;;;;;;5050046;28;20191;-61
2023/07/26 05:55:20;;;;;;;9.90;5.60;;;16.20;99.90;;;;;;5054316;28;20582;-61
2023/07/26 05:57:51;;;;;;;9.30;5.37;;;16.30;99.90;;;;;;5049867;28;20765;-61
2023/07/26 06:00:21;;;;;;;7.00;5.20;;;16.40;99.90;;;;;;5040528;28;20336;-61
2023/07/26 06:02:49;;;;;;;8.30;4.83;;;16.60;99.90;;;;;;5048902;28;20216;-61
2023/07/26 06:05:18;;;;;;;9.43;5.33;;;16.70;99.90;;;;;;5048218;28;20244;-61
2023/07/26 06:07:48;;;;;;;8.70;5.53;;;16.90;99.90;;;;;;5050791;28;20188;-61
2023/07/26 06:10:16;;;;;;;6.47;4.97;;;16.90;94.10;;;;;;5049801;28;20279;-61
2023/07/26 06:12:44;;;;;;;7.07;5.37;;;17.10;98.90;;;;;;5050894;28;20211;-61
2023/07/26 06:15:14;;;;;;;7.20;5.17;;;17.20;87.20;;;;;;5048890;28;20696;-61
2023/07/26 06:17:43;;;;;;;7.33;4.60;;;17.40;86.60;;;;;;5051212;28;20191;-61
2023/07/26 06:20:12;;;;;;;9.80;5.43;;;17.60;74.30;;;;;;5053510;28;20254;-61
2023/07/26 06:22:41;;;;;;;7.97;4.87;;;17.80;64.40;;;;;;5048513;28;20189;-61
2023/07/26 06:25:09;;;;;;;6.93;4.43;;;18.00;57.30;;;;;;5051882;28;20697;-61
2023/07/26 06:27:38;;;;;;;5.73;4.30;;;18.10;50.30;;;;;;5048684;28;20193;-61
2023/07/26 06:30:07;;;;;;;7.37;4.87;;;18.10;38.70;;;;;;5058326;28;20181;-61
2023/07/26 06:32:37;;;;;;;6.80;4.40;;;18.10;42.20;;;;;;5049356;28;20211;-61
2023/07/26 06:35:06;;;;;;;7.90;4.93;;;18.10;45.40;;;;;;5045036;28;20308;-61
2023/07/26 06:37:37;;;;;;;6.47;4.70;;;18.00;36.70;;;;;;5041907;28;20225;-61
2023/07/26 06:40:06;;;;;;;7.97;4.57;;;17.80;40.80;;;;;;5050493;28;20312;-61
2023/07/26 06:42:35;;;;;;;9.30;5.43;;;17.70;46.00;;;;;;5053119;28;20212;-61
2023/07/26 06:45:04;;;;;;;8.00;4.83;;;17.70;38.60;;;;;;5047944;28;20196;-61
2023/07/26 06:47:33;;;;;;;6.80;5.17;;;17.60;42.80;;;;;;5048564;28;20197;-61
2023/07/26 06:50:03;;;;;;;12.47;5.40;;;17.60;53.20;;;;;;5052514;28;20232;-61
2023/07/26 06:52:31;;;;;;;6.27;4.40;;;17.60;50.30;;;;;;5052100;28;20188;-61
2023/07/26 06:55:00;;;;;;;6.63;4.87;;;17.60;50.80;;;;;;5036250;28;20229;-61
2023/07/26 06:57:28;;;;;;;6.43;4.90;;;17.60;52.60;;;;;;5045037;28;20575;-61
2023/07/26 06:59:56;;;;;;;9.83;5.03;;;17.70;42.90;;;;;;5044739;28;21641;-61
2023/07/26 07:02:25;;;;;;;4.93;4.47;;;18.00;37.30;;;;;;5046069;28;20666;-61
2023/07/26 07:04:53;;;;;;;6.37;4.77;;;18.40;27.80;;;;;;5049689;28;20207;-61
2023/07/26 07:07:23;;;;;;;6.63;4.33;;;18.70;16.60;;;;;;5046659;28;20209;-61
2023/07/26 07:09:52;;;;;;;5.00;4.23;;;18.90;1.00;;;;;;5052866;28;20183;-61
2023/07/26 07:12:20;;;;;;;6.57;4.20;;;19.10;1.00;;;;;;5043483;28;20616;-61
2023/07/26 07:14:48;;;;;;;4.70;4.33;;;19.10;1.00;;;;;;5046514;28;20193;-61
2023/07/26 07:17:17;;;;;;;6.50;4.70;;;19.20;1.00;;;;;;5047732;28;20207;-61
2023/07/26 07:19:45;;;;;;;4.90;4.40;;;19.70;1.00;;;;;;5045264;28;20200;-61
2023/07/26 07:22:14;;;;;;;8.77;4.67;;;19.90;1.00;;;;;;5055103;28;20552;-61
2023/07/26 07:24:43;;;;;;;7.40;4.43;;;19.90;1.00;;;;;;5044473;28;20197;-61
2023/07/26 07:27:12;;;;;;;7.60;4.43;;;19.80;1.00;;;;;;5052143;28;20240;-61
2023/07/26 07:29:41;;;;;;;5.27;4.53;;;19.90;1.00;;;;;;5045892;28;20856;-61
2023/07/26 07:32:10;;;;;;;7.30;4.13;;;20.30;1.00;;;;;;5044257;28;20659;-61
2023/07/26 07:34:49;;;;;;;5.17;3.97;;;20.60;1.00;;;;;;5045051;28;20200;-62
2023/07/26 07:37:18;;;;;;;6.00;4.40;;;21.00;1.00;;;;;;5042393;28;20202;-62
2023/07/26 07:39:48;;;;;;;5.03;3.87;;;21.40;1.00;;;;;;5052554;28;20193;-61
2023/07/26 07:42:16;;;;;;;8.23;4.53;;;21.30;1.00;;;;;;5044453;28;20198;-62
2023/07/26 07:44:44;;;;;;;4.20;3.80;;;21.10;1.00;;;;;;5043156;28;20199;-61
2023/07/26 07:47:12;;;;;;;5.63;4.27;;;20.90;1.00;;;;;;5043309;28;20203;-61
2023/07/26 07:49:46;;;;;;;6.50;4.50;;;21.00;1.00;;;;;;5045171;28;20248;-62
2023/07/26 07:52:15;;;;;;;4.33;4.03;;;21.10;1.00;;;;;;5049931;28;20189;-61
2023/07/26 07:54:43;;;;;;;8.00;4.13;;;21.60;1.00;;;;;;5042097;28;20209;-61
2023/07/26 07:57:13;;;;;;;6.60;4.20;;;22.00;99.90;;;;;;5045942;28;20193;-62
2023/07/26 07:59:42;;;;;;;4.28;3.70;;;22.20;99.90;;;;;;5046428;28;20216;-61
2023/07/26 08:02:10;;;;;;;5.25;4.00;;;22.50;99.90;;;;;;5043018;28;20302;-63
2023/07/26 08:04:38;;;;;;;4.97;3.72;;;22.90;1.00;;;;;;5048310;28;20535;-62
2023/07/26 08:07:07;;;;;;;4.50;3.70;;;23.10;1.00;;;;;;5049455;28;20519;-62
2023/07/26 08:09:35;;;;;;;4.65;3.85;;;23.20;1.00;;;;;;5045303;28;20200;-59
2023/07/26 08:12:06;;;;;;;4.65;3.92;;;23.40;99.90;;;;;;5049094;28;20203;-60
2023/07/26 08:14:36;;;;;;;8.02;3.75;;;23.60;99.90;;;;;;5044689;28;20275;-61
2023/07/26 08:17:05;;;;;;;4.47;3.25;;;23.90;1.00;;;;;;5039436;28;20201;-62
2023/07/26 08:19:33;;;;;;;4.97;3.40;;;24.30;99.90;;;;;;5038365;28;20224;-60
2023/07/26 08:22:05;;;;;;;4.60;3.53;;;24.60;1.00;;;;;;5037514;28;20219;-60
2023/07/26 08:24:36;;;;;;;3.03;2.83;;;24.60;1.00;;;;;;5042206;28;20207;-60
2023/07/26 08:27:06;;;;;;;3.25;2.95;;;24.40;89.20;;;;;;5046998;28;20555;-61
2023/07/26 08:29:36;;;;;;;3.25;2.80;;;24.50;1.00;;;;;;5046770;28;20202;-60
2023/07/26 08:32:05;;;;;;;2.63;2.42;;;24.80;99.90;;;;;;5047357;28;20261;-60
2023/07/26 08:34:34;;;;;;;3.40;3.10;;;25.10;1.00;;;;;;5047914;28;20189;-60
2023/07/26 08:37:04;;;;;;;3.35;3.15;;;25.10;1.00;;;;;;5047177;28;20658;-60
2023/07/26 08:39:32;;;;;;;3.25;2.88;;;24.70;1.00;;;;;;5047515;28;20639;-60
2023/07/26 08:42:03;;;;;;;3.15;2.85;;;24.90;1.00;;;;;;5043206;28;20205;-60
2023/07/26 08:44:33;;;;;;;3.53;3.08;;;24.60;99.90;;;;;;5046314;28;20192;-60
2023/07/26 08:47:05;;;;;;;3.08;2.88;;;24.70;99.90;;;;;;5043963;28;20189;-60
2023/07/26 08:49:34;;;;;;;3.05;2.80;;;25.30;99.90;;;;;;5047477;28;20240;-61
2023/07/26 08:52:03;;;;;;;3.45;3.10;;;25.70;99.90;;;;;;5046977;28;20691;-60
2023/07/26 08:54:33;;;;;;;4.80;3.10;;;25.90;1.00;;;;;;5049100;28;20208;-60
2023/07/26 08:57:02;;;;;;;3.08;2.70;;;25.60;99.90;;;;;;5048218;28;20693;-60
2023/07/26 08:59:30;;;;;;;3.20;2.90;;;25.70;1.00;;;;;;5042083;28;20206;-60
2023/07/26 09:01:59;;;;;;;3.63;3.38;;;25.70;1.00;;;;;;5048086;28;20212;-60
2023/07/26 09:04:33;;;;;;;3.10;2.90;;;26.00;1.00;;;;;;5047046;28;20776;-61
2023/07/26 09:07:02;;;;;;;3.33;2.97;;;26.10;99.90;;;;;;5055781;28;20199;-61
2023/07/26 09:09:32;;;;;;;3.72;3.17;;;25.30;1.00;;;;;;5044637;28;20247;-61
2023/07/26 09:12:02;;;;;;;3.30;2.88;;;25.30;1.00;;;;;;5044106;28;20193;-61
2023/07/26 09:14:32;;;;;;;3.33;3.05;;;25.90;42.10;;;;;;5051277;28;20221;-61
2023/07/26 09:17:03;;;;;;;2.97;2.83;;;25.80;1.00;;;;;;5062337;28;20194;-60
2023/07/26 09:19:35;;;;;;;3.60;3.40;;;25.20;1.00;;;;;;5046432;28;20208;-61
2023/07/26 09:22:06;;;;;;;3.45;3.17;;;24.50;99.90;;;;;;5049805;28;20207;-60
2023/07/26 09:24:39;;;;;;;4.18;3.17;;;23.80;99.90;;;;;;5048901;28;20210;-61
2023/07/26 09:27:09;;;;;;;3.30;3.00;;;23.70;1.00;;;;;;5053591;28;20279;-61
2023/07/26 09:29:41;;;;;;;3.28;3.08;;;23.80;1.00;;;;;;5063388;28;20663;-60
2023/07/26 09:32:09;;;;;;;3.10;2.90;;;23.40;20.10;;;;;;5049529;28;20194;-60
2023/07/26 09:34:41;;;;;;;7.40;3.10;;;23.60;99.90;;;;;;5044123;28;20288;-61
2023/07/26 09:37:20;;;;;;;3.57;3.07;;;23.80;90.30;;;;;;5036488;28;20741;-60
2023/07/26 09:39:48;;;;;;;3.03;2.83;;;24.50;1.00;;;;;;5048884;28;20187;-62
2023/07/26 09:42:17;;;;;;;3.00;2.80;;;25.40;1.00;;;;;;5042194;28;20226;-60
2023/07/26 09:44:47;;;;;;;3.42;3.00;;;26.20;99.90;;;;;;5048597;28;20209;-59
2023/07/26 09:47:17;;;;;;;3.22;2.97;;;26.80;1.00;;;;;;5043908;28;20205;-61
2023/07/26 09:49:52;;;;;;;3.55;3.25;;;27.20;99.90;;;;;;5035801;28;20605;-60
2023/07/26 09:52:43;;;;;;;3.05;2.85;;;27.60;1.00;;;;;;5046161;28;20239;-60
2023/07/26 09:55:12;;;;;;;4.20;3.40;;;27.90;1.00;;;;;;5036133;28;20200;-60
2023/07/26 09:57:51;;;;;;;3.20;3.00;;;27.30;1.00;;;;;;5057404;28;20199;-60
2023/07/26 10:00:20;;;;;;;3.35;3.05;;;26.00;99.90;;;;;;5035629;28;20765;-60
2023/07/26 10:02:56;;;;;;;3.90;3.25;;;24.90;1.00;;;;;;5038918;28;20617;-61
2023/07/26 10:05:28;;;;;;;3.75;3.13;;;23.70;1.00;;;;;;5042094;28;20218;-60
2023/07/26 10:07:56;;;;;;;4.07;3.33;;;22.80;99.90;;;;;;5056856;28;20220;-60
2023/07/26 10:10:29;;;;;;;5.23;3.63;;;22.20;99.90;;;;;;5043372;28;20320;-60
2023/07/26 10:12:59;;;;;;;3.40;3.10;;;21.80;99.90;;;;;;5043724;28;20195;-60
2023/07/26 10:15:30;;;;;;;4.27;3.00;;;21.60;1.00;;;;;;5048703;28;20185;-60
2023/07/26 10:18:00;;;;;;;4.97;3.50;;;21.30;99.90;;;;;;5050019;28;20205;-60
2023/07/26 10:20:32;;;;;;;3.27;3.07;;;21.20;1.00;;;;;;5047391;28;20183;-61
2023/07/26 10:23:03;;;;;;;3.87;3.43;;;21.50;1.00;;;;;;5046612;28;20210;-61
2023/07/26 10:25:33;;;;;;;3.97;3.47;;;22.80;1.00;;;;;;5050561;28;20185;-61
2023/07/26 10:28:01;;;;;;;4.23;3.40;;;24.00;1.00;;;;;;5051254;28;20193;-61
2023/07/26 10:30:30;;;;;;;4.20;3.80;;;25.10;1.00;;;;;;5046723;28;20197;-61
2023/07/26 10:33:01;;;;;;;3.88;3.58;;;26.00;56.50;;;;;;5045566;28;20187;-61
2023/07/26 10:35:32;;;;;;;3.70;3.40;;;26.40;99.90;;;;;;5045831;28;20223;-61
2023/07/26 10:38:03;;;;;;;3.97;3.65;;;26.80;70.90;;;;;;5049482;28;20201;-61
2023/07/26 10:40:36;;;;;;;4.18;3.40;;;27.00;1.00;;;;;;5052467;28;20687;-61
2023/07/26 10:43:39;;;;;;;4.38;3.13;;;27.30;99.90;;;;;;5049794;28;20212;-61
2023/07/26 10:46:13;;;;;;;3.25;3.05;;;27.40;1.00;;;;;;5051642;28;20208;-61
2023/07/26 10:48:43;;;;;;;3.47;3.00;;;27.70;99.90;;;;;;5046649;28;20255;-59
2023/07/26 10:51:32;;;;;;;2.95;2.78;;;28.00;1.00;;;;;;5042430;28;20201;-59
2023/07/26 10:54:01;;;;;;;3.20;3.00;;;27.60;1.00;;;;;;5047687;28;20269;-59
2023/07/26 10:56:34;;;;;;;3.42;2.92;;;27.60;1.00;;;;;;5038866;28;20662;-59
2023/07/26 10:59:27;;;;;;;5.93;3.03;;;27.40;1.00;;;;;;5054322;28;20280;-59
2023/07/26 11:02:04;;;;;;;3.92;3.08;;;26.70;1.00;;;;;;5047962;28;20741;-59
2023/07/26 11:04:33;;;;;;;3.47;3.17;;;26.10;99.90;;;;;;5046103;28;20191;-59
2023/07/26 11:07:04;;;;;;;3.33;3.10;;;25.90;99.90;;;;;;5045325;28;20209;-59
2023/07/26 11:09:33;;;;;;;5.38;2.72;;;26.10;99.90;;;;;;5037078;28;20490;-60
2023/07/26 11:12:04;;;;;;;3.00;2.80;;;26.10;1.00;;;;;;5023788;28;20270;-60
2023/07/26 11:14:34;;;;;;;3.42;3.15;;;25.90;99.90;;;;;;5021816;28;20222;-61
2023/07/26 11:17:11;;;;;;;3.20;2.90;;;26.00;1.00;;;;;;5024473;28;20198;-61
2023/07/26 11:19:46;;;;;;;2.67;2.58;;;26.60;1.00;;;;;;5027328;28;20214;-61
2023/07/26 11:22:18;;;;;;;3.30;3.00;;;26.60;99.90;;;;;;5023426;28;20274;-61
2023/07/26 11:24:47;;;;;;;5.80;3.33;;;26.00;88.60;;;;;;5013981;28;20276;-61
2023/07/26 11:27:15;;;;;;;3.30;3.00;;;25.10;99.90;;;;;;5020920;28;20223;-62
2023/07/26 11:29:43;;;;;;;3.23;3.10;;;24.60;1.00;;;;;;5021582;28;20249;-62
2023/07/26 11:32:24;;;;;;;2.73;2.53;;;24.30;99.90;;;;;;5027410;28;20198;-61
2023/07/26 11:34:55;;;;;;;3.13;2.93;;;24.20;99.90;;;;;;5022194;28;20189;-62
2023/07/26 11:37:25;;;;;;;3.97;3.30;;;24.00;99.90;;;;;;5044151;28;20229;-62
2023/07/26 11:40:04;;;;;;;5.73;3.50;;;23.50;1.00;;;;;;5026642;28;20627;-62
2023/07/26 11:42:33;;;;;;;3.70;3.23;;;23.80;1.00;;;;;;5028948;28;20213;-62
2023/07/26 11:45:03;;;;;;;5.80;3.63;;;24.20;26.70;;;;;;5027116;28;20235;-58
2023/07/26 11:47:35;;;;;;;4.73;3.50;;;24.10;99.90;;;;;;5025499;28;20236;-62
2023/07/26 11:50:04;;;;;;;3.50;3.20;;;24.00;1.00;;;;;;5027417;28;20247;-61
2023/07/26 11:52:34;;;;;;;4.13;3.77;;;23.70;1.00;;;;;;5023259;28;20636;-61
2023/07/26 11:55:05;;;;;;;6.13;3.87;;;23.50;99.90;;;;;;5044990;28;20696;-60
2023/07/26 11:57:34;;;;;;;4.00;3.70;;;23.30;13.90;;;;;;5027368;28;20234;-61
2023/07/26 12:00:04;;;;;;;4.43;3.40;;;23.20;1.00;;;;;;5027218;28;20223;-61
2023/07/26 12:02:34;;;;;;;3.97;3.67;;;23.30;1.00;;;;;;5029607;28;20227;-62
2023/07/26 12:05:19;;;;;;;3.43;3.13;;;23.40;99.90;;;;;;5002680;28;20300;-61
2023/07/26 12:07:50;;;;;;;3.70;3.50;;;23.50;10.00;;;;;;5012010;28;20213;-60
2023/07/26 12:10:30;;;;;;;5.40;3.77;;;23.80;99.90;;;;;;5015876;28;20228;-61
2023/07/26 12:12:59;;;;;;;4.33;3.93;;;24.00;1.00;;;;;;5043882;28;20221;-61
2023/07/26 12:15:27;;;;;;;4.13;3.73;;;24.60;1.00;;;;;;5026937;28;20217;-61
2023/07/26 12:18:01;;;;;;;4.87;3.60;;;24.90;99.90;;;;;;5030520;28;20225;-61
2023/07/26 12:20:31;;;;;;;3.83;3.60;;;25.50;99.90;;;;;;5025052;28;20228;-60
2023/07/26 12:23:17;;;;;;;3.63;3.33;;;25.20;1.00;;;;;;5026257;28;20568;-61
2023/07/26 12:25:45;;;;;;;3.10;2.90;;;24.80;99.90;;;;;;5028406;28;20197;-61
2023/07/26 12:28:14;;;;;;;3.33;3.10;;;24.70;1.00;;;;;;5014217;28;20221;-60
2023/07/26 12:30:42;;;;;;;3.77;3.40;;;24.60;1.00;;;;;;5009185;28;20245;-61
2023/07/26 12:33:12;;;;;;;4.37;3.40;;;24.50;99.90;;;;;;5015994;28;20225;-61
2023/07/26 12:35:44;;;;;;;3.53;3.33;;;24.50;99.90;;;;;;5024533;28;20225;-61
2023/07/26 12:38:14;;;;;;;4.27;3.27;;;24.60;99.90;;;;;;5022966;28;20191;-61
2023/07/26 12:40:44;;;;;;;4.43;3.30;;;24.90;1.00;;;;;;5030086;28;20201;-61
2023/07/26 12:43:23;;;;;;;3.57;3.37;;;25.20;1.00;;;;;;5027355;28;20240;-61
2023/07/26 12:45:51;;;;;;;5.77;3.70;;;25.10;1.00;;;;;;5031742;28;20826;-61
2023/07/26 12:48:20;;;;;;;3.43;3.17;;;25.10;1.00;;;;;;5028298;28;20237;-61
2023/07/26 12:50:50;;;;;;;3.53;3.33;;;24.90;1.00;;;;;;5029250;28;20217;-62
2023/07/26 12:53:20;;;;;;;3.97;3.60;;;24.70;1.00;;;;;;5032932;28;20182;-61
2023/07/26 12:55:51;;;;;;;3.87;3.50;;;24.40;99.90;;;;;;5031896;28;20259;-61
2023/07/26 12:58:20;;;;;;;3.97;3.50;;;24.20;99.90;;;;;;5027012;28;20213;-60
2023/07/26 13:00:48;;;;;;;3.07;2.77;;;24.10;99.90;;;;;;5021718;28;20313;-60